sensor_id;sensor_type;location;lat;lon;timestamp;temperature;humidity
14511;DHT22;7341;50.930;4.038;2022-11-21T00:01:37;7.10;99.90
14511;DHT22;7341;50.930;4.038;2022-11-21T00:04:04;7.00;99.90
14511;DHT22;7341;50.930;4.038;2022-11-21T00:06:31;7.10;99.90
14511;DHT22;7341;50.930;4.038;2022-11-21T00:08:59;7.00;99.90
14511;DHT22;7341;50.930;4.038;2022-11-21T00:11:26;7.10;99.90
14511;DHT22;7341;50.930;4.038;2022-11-21T00:13:53;7.10;99.90
14511;DHT22;7341;50.930;4.038;2022-11-21T00:16:20;7.10;99.90
14511;DHT22;7341;50.930;4.038;2022-11-21T00:18:48;7.10;99.90
14511;DHT22;7341;50.930;4.038;2022-11-21T00:21:17;7.10;99.90
14511;DHT22;7341;50.930;4.038;2022-11-21T00:23:45;7.20;99.90
14511;DHT22;7341;50.930;4.038;2022-11-21T00:26:14;7.20;99.90
14511;DHT22;7341;50.930;4.038;2022-11-21T00:28:41;7.20;99.90
14511;DHT22;7341;50.930;4.038;2022-11-21T00:31:08;7.20;99.90
14511;DHT22;7341;50.930;4.038;2022-11-21T00:33:35;7.20;99.90
14511;DHT22;7341;50.930;4.038;2022-11-21T00:36:08;7.20;99.90
14511;DHT22;7341;50.930;4.038;2022-11-21T00:38:35;7.20;99.90
14511;DHT22;7341;50.930;4.038;2022-11-21T00:41:02;7.30;99.90
14511;DHT22;7341;50.930;4.038;2022-11-21T00:43:29;7.20;99.90
14511;DHT22;7341;50.930;4.038;2022-11-21T00:45:55;7.50;99.90
14511;DHT22;7341;50.930;4.038;2022-11-21T00:48:23;7.30;99.90
14511;DHT22;7341;50.930;4.038;2022-11-21T00:50:50;7.30;99.90
14511;DHT22;7341;50.930;4.038;2022-11-21T00:53:18;7.30;99.90
14511;DHT22;7341;50.930;4.038;2022-11-21T00:55:45;7.40;99.90
14511;DHT22;7341;50.930;4.038;2022-11-21T00:58:12;7.30;99.90
14511;DHT22;7341;50.930;4.038;2022-11-21T01:00:39;7.30;99.90
14511;DHT22;7341;50.930;4.038;2022-11-21T01:03:05;7.40;99.90
14511;DHT22;7341;50.930;4.038;2022-11-21T01:05:32;7.30;99.90
14511;DHT22;7341;50.930;4.038;2022-11-21T01:07:59;7.20;99.90
14511;DHT22;7341;50.930;4.038;2022-11-21T01:10:27;7.20;99.90
14511;DHT22;7341;50.930;4.038;2022-11-21T01:12:54;7.20;99.90
14511;DHT22;7341;50.930;4.038;2022-11-21T01:15:21;7.30;99.90
14511;DHT22;7341;50.930;4.038;2022-11-21T01:17:47;7.20;99.90
14511;DHT22;7341;50.930;4.038;2022-11-21T01:20:14;7.30;99.90
14511;DHT22;7341;50.930;4.038;2022-11-21T01:22:41;7.40;99.90
14511;DHT22;7341;50.930;4.038;2022-11-21T01:25:08;7.40;99.90
14511;DHT22;7341;50.930;4.038;2022-11-21T01:27:37;7.40;99.90
14511;DHT22;7341;50.930;4.038;2022-11-21T01:30:04;7.30;99.90
14511;DHT22;7341;50.930;4.038;2022-11-21T01:32:31;7.20;99.90
14511;DHT22;7341;50.930;4.038;2022-11-21T01:34:58;7.20;99.90
14511;DHT22;7341;50.930;4.038;2022-11-21T01:37:25;7.20;99.90
14511;DHT22;7341;50.930;4.038;2022-11-21T01:39:51;7.30;99.90
14511;DHT22;7341;50.930;4.038;2022-11-21T01:42:19;7.30;99.90
14511;DHT22;7341;50.930;4.038;2022-11-21T01:44:49;7.40;99.90
14511;DHT22;7341;50.930;4.038;2022-11-21T01:47:19;7.30;99.90
14511;DHT22;7341;50.930;4.038;2022-11-21T01:49:47;7.20;99.90
14511;DHT22;7341;50.930;4.038;2022-11-21T01:52:18;7.20;99.90
14511;DHT22;7341;50.930;4.038;2022-11-21T01:54:50;7.10;99.90
14511;DHT22;7341;50.930;4.038;2022-11-21T01:57:22;7.10;99.90
14511;DHT22;7341;50.930;4.038;2022-11-21T01:59:59;7.10;99.90
14511;DHT22;7341;50.930;4.038;2022-11-21T02:02:33;7.10;99.90
14511;DHT22;7341;50.930;4.038;2022-11-21T02:05:05;7.00;99.90
14511;DHT22;7341;50.930;4.038;2022-11-21T02:07:40;6.90;99.90
14511;DHT22;7341;50.930;4.038;2022-11-21T02:10:09;6.90;99.90
14511;DHT22;7341;50.930;4.038;2022-11-21T02:12:40;6.90;99.90
14511;DHT22;7341;50.930;4.038;2022-11-21T02:15:11;6.90;99.90
14511;DHT22;7341;50.930;4.038;2022-11-21T02:17:38;6.80;99.90
14511;DHT22;7341;50.930;4.038;2022-11-21T02:20:06;6.90;99.90
14511;DHT22;7341;50.930;4.038;2022-11-21T02:22:39;6.90;99.90
14511;DHT22;7341;50.930;4.038;2022-11-21T02:25:13;6.90;99.90
14511;DHT22;7341;50.930;4.038;2022-11-21T02:27:40;6.90;99.90
14511;DHT22;7341;50.930;4.038;2022-11-21T02:30:09;6.90;99.90
14511;DHT22;7341;50.930;4.038;2022-11-21T02:32:40;6.90;99.90
14511;DHT22;7341;50.930;4.038;2022-11-21T02:35:17;7.00;99.90
14511;DHT22;7341;50.930;4.038;2022-11-21T02:37:48;7.00;99.90
14511;DHT22;7341;50.930;4.038;2022-11-21T02:40:22;7.00;99.90
14511;DHT22;7341;50.930;4.038;2022-11-21T02:42:58;7.10;99.90
14511;DHT22;7341;50.930;4.038;2022-11-21T02:45:29;7.10;99.90
14511;DHT22;7341;50.930;4.038;2022-11-21T02:47:56;7.10;99.90
14511;DHT22;7341;50.930;4.038;2022-11-21T02:50:26;7.10;99.90
14511;DHT22;7341;50.930;4.038;2022-11-21T02:52:53;7.10;99.90
14511;DHT22;7341;50.930;4.038;2022-11-21T02:55:23;7.20;99.90
14511;DHT22;7341;50.930;4.038;2022-11-21T02:57:52;7.20;99.90
14511;DHT22;7341;50.930;4.038;2022-11-21T03:00:19;7.20;99.90
14511;DHT22;7341;50.930;4.038;2022-11-21T03:02:46;7.10;99.90
14511;DHT22;7341;50.930;4.038;2022-11-21T03:05:15;7.10;99.90
14511;DHT22;7341;50.930;4.038;2022-11-21T03:07:43;7.20;99.90
14511;DHT22;7341;50.930;4.038;2022-11-21T03:10:10;7.20;99.90
14511;DHT22;7341;50.930;4.038;2022-11-21T03:12:40;7.20;99.90
14511;DHT22;7341;50.930;4.038;2022-11-21T03:15:14;7.20;99.90
14511;DHT22;7341;50.930;4.038;2022-11-21T03:17:42;7.20;99.90
14511;DHT22;7341;50.930;4.038;2022-11-21T03:20:10;7.20;99.90
14511;DHT22;7341;50.930;4.038;2022-11-21T03:22:43;7.20;99.90
14511;DHT22;7341;50.930;4.038;2022-11-21T03:25:15;7.20;99.90
14511;DHT22;7341;50.930;4.038;2022-11-21T03:27:44;7.10;99.90
14511;DHT22;7341;50.930;4.038;2022-11-21T03:30:12;7.20;99.90
14511;DHT22;7341;50.930;4.038;2022-11-21T03:32:40;7.20;99.90
14511;DHT22;7341;50.930;4.038;2022-11-21T03:35:08;7.20;99.90
14511;DHT22;7341;50.930;4.038;2022-11-21T03:37:35;7.00;99.90
14511;DHT22;7341;50.930;4.038;2022-11-21T03:40:03;7.20;99.90
14511;DHT22;7341;50.930;4.038;2022-11-21T03:42:30;7.10;99.90
14511;DHT22;7341;50.930;4.038;2022-11-21T03:44:59;7.00;99.90
14511;DHT22;7341;50.930;4.038;2022-11-21T03:47:26;7.10;99.90
14511;DHT22;7341;50.930;4.038;2022-11-21T03:49:53;7.00;99.90
14511;DHT22;7341;50.930;4.038;2022-11-21T03:52:20;7.10;99.90
14511;DHT22;7341;50.930;4.038;2022-11-21T03:54:49;7.20;99.90
14511;DHT22;7341;50.930;4.038;2022-11-21T03:57:16;7.10;99.90
14511;DHT22;7341;50.930;4.038;2022-11-21T03:59:43;7.10;99.90
14511;DHT22;7341;50.930;4.038;2022-11-21T04:02:13;7.10;99.90
14511;DHT22;7341;50.930;4.038;2022-11-21T04:04:40;7.00;99.90
14511;DHT22;7341;50.930;4.038;2022-11-21T04:07:08;7.00;99.90
14511;DHT22;7341;50.930;4.038;2022-11-21T04:09:35;6.90;99.90
14511;DHT22;7341;50.930;4.038;2022-11-21T04:12:02;7.00;99.90
14511;DHT22;7341;50.930;4.038;2022-11-21T04:14:29;6.90;99.90
14511;DHT22;7341;50.930;4.038;2022-11-21T04:16:56;7.00;99.90
14511;DHT22;7341;50.930;4.038;2022-11-21T04:19:24;7.00;99.90
14511;DHT22;7341;50.930;4.038;2022-11-21T04:21:51;7.00;99.90
14511;DHT22;7341;50.930;4.038;2022-11-21T04:24:19;7.00;99.90
14511;DHT22;7341;50.930;4.038;2022-11-21T04:26:47;7.00;99.90
14511;DHT22;7341;50.930;4.038;2022-11-21T04:29:14;7.00;99.90
14511;DHT22;7341;50.930;4.038;2022-11-21T04:31:41;6.90;99.90
14511;DHT22;7341;50.930;4.038;2022-11-21T04:34:10;6.80;99.90
14511;DHT22;7341;50.930;4.038;2022-11-21T04:36:39;6.80;99.90
14511;DHT22;7341;50.930;4.038;2022-11-21T04:39:06;6.70;99.90
14511;DHT22;7341;50.930;4.038;2022-11-21T04:41:33;6.70;99.90
14511;DHT22;7341;50.930;4.038;2022-11-21T04:44:06;6.60;99.90
14511;DHT22;7341;50.930;4.038;2022-11-21T04:46:33;6.70;99.90
14511;DHT22;7341;50.930;4.038;2022-11-21T04:49:00;6.60;99.90
14511;DHT22;7341;50.930;4.038;2022-11-21T04:51:27;6.60;99.90
14511;DHT22;7341;50.930;4.038;2022-11-21T04:53:56;6.60;99.90
14511;DHT22;7341;50.930;4.038;2022-11-21T04:56:24;6.60;99.90
14511;DHT22;7341;50.930;4.038;2022-11-21T04:58:51;6.40;99.90
14511;DHT22;7341;50.930;4.038;2022-11-21T05:01:18;6.40;99.90
14511;DHT22;7341;50.930;4.038;2022-11-21T05:03:47;6.40;99.90
14511;DHT22;7341;50.930;4.038;2022-11-21T05:06:13;6.30;99.90
14511;DHT22;7341;50.930;4.038;2022-11-21T05:08:40;6.30;99.90
14511;DHT22;7341;50.930;4.038;2022-11-21T05:11:08;6.20;99.90
14511;DHT22;7341;50.930;4.038;2022-11-21T05:13:52;6.20;99.90
14511;DHT22;7341;50.930;4.038;2022-11-21T05:16:19;6.10;99.90
14511;DHT22;7341;50.930;4.038;2022-11-21T05:18:46;6.30;99.90
14511;DHT22;7341;50.930;4.038;2022-11-21T05:21:14;6.10;99.90
14511;DHT22;7341;50.930;4.038;2022-11-21T05:23:41;6.20;99.90
14511;DHT22;7341;50.930;4.038;2022-11-21T05:26:11;6.30;99.90
14511;DHT22;7341;50.930;4.038;2022-11-21T05:28:38;6.10;99.90
14511;DHT22;7341;50.930;4.038;2022-11-21T05:31:04;6.10;99.90
14511;DHT22;7341;50.930;4.038;2022-11-21T05:33:31;6.10;99.90
14511;DHT22;7341;50.930;4.038;2022-11-21T05:35:59;6.00;99.90
14511;DHT22;7341;50.930;4.038;2022-11-21T05:38:26;6.10;99.90
14511;DHT22;7341;50.930;4.038;2022-11-21T05:40:53;6.00;99.90
14511;DHT22;7341;50.930;4.038;2022-11-21T05:43:25;6.00;99.90
14511;DHT22;7341;50.930;4.038;2022-11-21T05:46:09;5.90;99.90
14511;DHT22;7341;50.930;4.038;2022-11-21T05:48:36;5.90;99.90
14511;DHT22;7341;50.930;4.038;2022-11-21T05:51:03;5.90;99.90
14511;DHT22;7341;50.930;4.038;2022-11-21T05:53:30;5.80;99.90
14511;DHT22;7341;50.930;4.038;2022-11-21T05:56:02;5.80;99.90
14511;DHT22;7341;50.930;4.038;2022-11-21T05:58:30;5.70;99.90
14511;DHT22;7341;50.930;4.038;2022-11-21T06:00:58;5.60;99.90
14511;DHT22;7341;50.930;4.038;2022-11-21T06:03:33;5.60;99.90
14511;DHT22;7341;50.930;4.038;2022-11-21T06:06:01;5.50;99.90
14511;DHT22;7341;50.930;4.038;2022-11-21T06:08:32;5.60;99.90
14511;DHT22;7341;50.930;4.038;2022-11-21T06:11:00;5.50;99.90
14511;DHT22;7341;50.930;4.038;2022-11-21T06:13:27;5.50;99.90
14511;DHT22;7341;50.930;4.038;2022-11-21T06:16:00;5.40;99.90
14511;DHT22;7341;50.930;4.038;2022-11-21T06:18:31;5.40;99.90
14511;DHT22;7341;50.930;4.038;2022-11-21T06:21:02;5.40;99.90
14511;DHT22;7341;50.930;4.038;2022-11-21T06:23:30;5.30;99.90
14511;DHT22;7341;50.930;4.038;2022-11-21T06:25:58;5.20;99.90
14511;DHT22;7341;50.930;4.038;2022-11-21T06:28:25;5.20;99.90
14511;DHT22;7341;50.930;4.038;2022-11-21T06:30:55;5.20;99.90
14511;DHT22;7341;50.930;4.038;2022-11-21T06:33:23;5.10;99.90
14511;DHT22;7341;50.930;4.038;2022-11-21T06:35:51;5.10;99.90
14511;DHT22;7341;50.930;4.038;2022-11-21T06:38:20;5.00;99.90
14511;DHT22;7341;50.930;4.038;2022-11-21T06:40:48;5.00;99.90
14511;DHT22;7341;50.930;4.038;2022-11-21T06:43:16;5.10;99.90
14511;DHT22;7341;50.930;4.038;2022-11-21T06:45:43;5.10;99.90
14511;DHT22;7341;50.930;4.038;2022-11-21T06:48:15;5.10;99.90
14511;DHT22;7341;50.930;4.038;2022-11-21T06:50:47;5.00;99.90
14511;DHT22;7341;50.930;4.038;2022-11-21T06:53:15;5.00;99.90
14511;DHT22;7341;50.930;4.038;2022-11-21T06:55:42;5.00;99.90
14511;DHT22;7341;50.930;4.038;2022-11-21T06:58:10;5.00;99.90
14511;DHT22;7341;50.930;4.038;2022-11-21T07:00:38;5.00;99.90
14511;DHT22;7341;50.930;4.038;2022-11-21T07:03:04;4.90;99.90
14511;DHT22;7341;50.930;4.038;2022-11-21T07:05:37;4.80;99.90
14511;DHT22;7341;50.930;4.038;2022-11-21T07:08:06;4.80;99.90
14511;DHT22;7341;50.930;4.038;2022-11-21T07:10:36;4.80;99.90
14511;DHT22;7341;50.930;4.038;2022-11-21T07:13:05;4.80;99.90
14511;DHT22;7341;50.930;4.038;2022-11-21T07:16:02;4.70;99.90
14511;DHT22;7341;50.930;4.038;2022-11-21T07:18:30;4.80;99.90
14511;DHT22;7341;50.930;4.038;2022-11-21T07:20:57;4.70;99.90
14511;DHT22;7341;50.930;4.038;2022-11-21T07:23:28;4.60;99.90
14511;DHT22;7341;50.930;4.038;2022-11-21T07:25:59;4.60;99.90
14511;DHT22;7341;50.930;4.038;2022-11-21T07:28:26;4.60;99.90
14511;DHT22;7341;50.930;4.038;2022-11-21T07:30:56;4.60;99.90
14511;DHT22;7341;50.930;4.038;2022-11-21T07:33:24;4.70;99.90
14511;DHT22;7341;50.930;4.038;2022-11-21T07:35:50;4.70;99.90
14511;DHT22;7341;50.930;4.038;2022-11-21T07:38:18;4.80;99.90
14511;DHT22;7341;50.930;4.038;2022-11-21T07:40:46;4.70;99.90
14511;DHT22;7341;50.930;4.038;2022-11-21T07:43:13;4.70;99.90
14511;DHT22;7341;50.930;4.038;2022-11-21T07:45:42;4.80;99.90
14511;DHT22;7341;50.930;4.038;2022-11-21T07:48:11;4.80;99.90
14511;DHT22;7341;50.930;4.038;2022-11-21T07:50:39;4.70;99.90
14511;DHT22;7341;50.930;4.038;2022-11-21T07:53:09;4.80;99.90
14511;DHT22;7341;50.930;4.038;2022-11-21T07:55:36;4.80;99.90
14511;DHT22;7341;50.930;4.038;2022-11-21T07:58:08;4.80;99.90
14511;DHT22;7341;50.930;4.038;2022-11-21T08:00:36;4.70;99.90
14511;DHT22;7341;50.930;4.038;2022-11-21T08:03:04;4.90;99.90
14511;DHT22;7341;50.930;4.038;2022-11-21T08:05:34;4.90;99.90
14511;DHT22;7341;50.930;4.038;2022-11-21T08:08:02;4.90;99.90
14511;DHT22;7341;50.930;4.038;2022-11-21T08:10:30;5.00;99.90
14511;DHT22;7341;50.930;4.038;2022-11-21T08:12:57;5.00;99.90
14511;DHT22;7341;50.930;4.038;2022-11-21T08:15:26;5.00;99.90
14511;DHT22;7341;50.930;4.038;2022-11-21T08:17:53;5.10;99.90
14511;DHT22;7341;50.930;4.038;2022-11-21T08:20:22;5.20;99.90
14511;DHT22;7341;50.930;4.038;2022-11-21T08:22:50;5.10;99.90
14511;DHT22;7341;50.930;4.038;2022-11-21T08:25:17;5.20;99.90
14511;DHT22;7341;50.930;4.038;2022-11-21T08:27:44;5.10;99.90
14511;DHT22;7341;50.930;4.038;2022-11-21T08:30:13;5.10;99.90
14511;DHT22;7341;50.930;4.038;2022-11-21T08:32:41;5.30;99.90
14511;DHT22;7341;50.930;4.038;2022-11-21T08:35:08;5.40;99.90
14511;DHT22;7341;50.930;4.038;2022-11-21T08:37:35;5.30;99.90
14511;DHT22;7341;50.930;4.038;2022-11-21T08:40:04;5.40;99.90
14511;DHT22;7341;50.930;4.038;2022-11-21T08:42:34;5.40;99.90
14511;DHT22;7341;50.930;4.038;2022-11-21T08:45:03;5.50;99.90
14511;DHT22;7341;50.930;4.038;2022-11-21T08:47:31;5.60;99.90
14511;DHT22;7341;50.930;4.038;2022-11-21T08:50:00;5.70;99.90
14511;DHT22;7341;50.930;4.038;2022-11-21T08:52:26;5.80;99.90
14511;DHT22;7341;50.930;4.038;2022-11-21T08:54:56;5.90;99.90
14511;DHT22;7341;50.930;4.038;2022-11-21T08:57:24;5.80;99.90
14511;DHT22;7341;50.930;4.038;2022-11-21T08:59:51;5.90;99.90
14511;DHT22;7341;50.930;4.038;2022-11-21T09:02:19;6.00;99.90
14511;DHT22;7341;50.930;4.038;2022-11-21T09:04:45;6.00;99.90
14511;DHT22;7341;50.930;4.038;2022-11-21T09:07:15;6.00;99.90
14511;DHT22;7341;50.930;4.038;2022-11-21T09:09:43;6.10;99.90
14511;DHT22;7341;50.930;4.038;2022-11-21T09:12:10;6.20;99.90
14511;DHT22;7341;50.930;4.038;2022-11-21T09:14:39;6.40;99.90
14511;DHT22;7341;50.930;4.038;2022-11-21T09:17:26;6.50;99.90
14511;DHT22;7341;50.930;4.038;2022-11-21T09:20:10;6.60;99.90
14511;DHT22;7341;50.930;4.038;2022-11-21T09:22:42;6.50;99.90
14511;DHT22;7341;50.930;4.038;2022-11-21T09:25:10;6.60;99.90
14511;DHT22;7341;50.930;4.038;2022-11-21T09:27:39;6.70;99.90
14511;DHT22;7341;50.930;4.038;2022-11-21T09:30:08;6.70;99.90
14511;DHT22;7341;50.930;4.038;2022-11-21T09:32:35;6.70;99.90
14511;DHT22;7341;50.930;4.038;2022-11-21T09:35:02;6.90;99.90
14511;DHT22;7341;50.930;4.038;2022-11-21T09:37:29;7.00;99.90
14511;DHT22;7341;50.930;4.038;2022-11-21T09:40:03;7.10;99.90
14511;DHT22;7341;50.930;4.038;2022-11-21T09:42:51;7.20;99.90
14511;DHT22;7341;50.930;4.038;2022-11-21T09:45:24;7.30;99.90
14511;DHT22;7341;50.930;4.038;2022-11-21T09:47:52;7.40;99.90
14511;DHT22;7341;50.930;4.038;2022-11-21T09:50:25;7.60;99.90
14511;DHT22;7341;50.930;4.038;2022-11-21T09:52:57;7.60;99.90
14511;DHT22;7341;50.930;4.038;2022-11-21T09:55:35;7.60;99.90
14511;DHT22;7341;50.930;4.038;2022-11-21T09:58:13;7.60;99.90
14511;DHT22;7341;50.930;4.038;2022-11-21T10:00:42;7.60;99.90
14511;DHT22;7341;50.930;4.038;2022-11-21T10:03:11;7.70;99.90
14511;DHT22;7341;50.930;4.038;2022-11-21T10:05:47;7.70;99.90
14511;DHT22;7341;50.930;4.038;2022-11-21T10:08:20;7.60;99.90
14511;DHT22;7341;50.930;4.038;2022-11-21T10:11:07;7.80;99.90
14511;DHT22;7341;50.930;4.038;2022-11-21T10:13:48;7.60;99.90
14511;DHT22;7341;50.930;4.038;2022-11-21T10:16:27;7.50;99.90
14511;DHT22;7341;50.930;4.038;2022-11-21T10:19:25;7.30;99.90
14511;DHT22;7341;50.930;4.038;2022-11-21T10:22:26;7.20;99.90
14511;DHT22;7341;50.930;4.038;2022-11-21T10:25:02;7.30;99.90
14511;DHT22;7341;50.930;4.038;2022-11-21T10:27:37;7.30;99.90
14511;DHT22;7341;50.930;4.038;2022-11-21T10:30:13;7.30;99.90
14511;DHT22;7341;50.930;4.038;2022-11-21T10:32:43;7.40;99.90
14511;DHT22;7341;50.930;4.038;2022-11-21T10:35:17;7.40;99.90
14511;DHT22;7341;50.930;4.038;2022-11-21T10:37:48;7.30;99.90
14511;DHT22;7341;50.930;4.038;2022-11-21T10:40:25;7.50;99.90
14511;DHT22;7341;50.930;4.038;2022-11-21T10:43:02;7.60;99.90
14511;DHT22;7341;50.930;4.038;2022-11-21T10:45:52;7.70;99.90
14511;DHT22;7341;50.930;4.038;2022-11-21T10:48:19;8.00;99.90
14511;DHT22;7341;50.930;4.038;2022-11-21T10:51:04;8.00;99.90
14511;DHT22;7341;50.930;4.038;2022-11-21T10:53:37;8.00;99.90
14511;DHT22;7341;50.930;4.038;2022-11-21T10:56:25;8.00;99.90
14511;DHT22;7341;50.930;4.038;2022-11-21T10:58:54;8.10;99.90
14511;DHT22;7341;50.930;4.038;2022-11-21T11:01:25;8.00;99.90
14511;DHT22;7341;50.930;4.038;2022-11-21T11:04:04;8.30;99.90
14511;DHT22;7341;50.930;4.038;2022-11-21T11:06:33;8.30;99.90
14511;DHT22;7341;50.930;4.038;2022-11-21T11:09:08;8.30;99.90
14511;DHT22;7341;50.930;4.038;2022-11-21T11:11:50;8.30;99.90
14511;DHT22;7341;50.930;4.038;2022-11-21T11:14:30;8.40;99.90
14511;DHT22;7341;50.930;4.038;2022-11-21T11:17:03;8.50;99.90
14511;DHT22;7341;50.930;4.038;2022-11-21T11:19:32;8.50;99.90
14511;DHT22;7341;50.930;4.038;2022-11-21T11:22:00;8.70;99.90
14511;DHT22;7341;50.930;4.038;2022-11-21T11:24:30;8.60;99.90
14511;DHT22;7341;50.930;4.038;2022-11-21T11:26:59;8.70;99.90
14511;DHT22;7341;50.930;4.038;2022-11-21T11:29:28;8.70;99.90
14511;DHT22;7341;50.930;4.038;2022-11-21T11:32:13;8.60;99.90
14511;DHT22;7341;50.930;4.038;2022-11-21T11:34:45;8.60;99.90
14511;DHT22;7341;50.930;4.038;2022-11-21T11:37:20;8.50;99.90
14511;DHT22;7341;50.930;4.038;2022-11-21T11:39:58;8.70;99.90
14511;DHT22;7341;50.930;4.038;2022-11-21T11:42:43;8.60;99.90
14511;DHT22;7341;50.930;4.038;2022-11-21T11:46:13;8.70;99.90
14511;DHT22;7341;50.930;4.038;2022-11-21T11:49:03;8.80;99.90
14511;DHT22;7341;50.930;4.038;2022-11-21T11:51:37;8.60;99.90
14511;DHT22;7341;50.930;4.038;2022-11-21T11:54:10;8.60;99.90
14511;DHT22;7341;50.930;4.038;2022-11-21T11:56:38;8.80;99.90
14511;DHT22;7341;50.930;4.038;2022-11-21T11:59:11;8.80;99.90
14511;DHT22;7341;50.930;4.038;2022-11-21T12:01:48;8.90;99.90
14511;DHT22;7341;50.930;4.038;2022-11-21T12:04:17;8.90;99.90
14511;DHT22;7341;50.930;4.038;2022-11-21T12:06:49;8.90;99.90
14511;DHT22;7341;50.930;4.038;2022-11-21T12:09:23;9.00;99.90
14511;DHT22;7341;50.930;4.038;2022-11-21T12:11:57;9.00;99.90
14511;DHT22;7341;50.930;4.038;2022-11-21T12:14:52;9.00;99.90
14511;DHT22;7341;50.930;4.038;2022-11-21T12:17:42;9.00;99.90
14511;DHT22;7341;50.930;4.038;2022-11-21T12:20:18;9.30;99.90
14511;DHT22;7341;50.930;4.038;2022-11-21T12:22:48;9.20;99.90
14511;DHT22;7341;50.930;4.038;2022-11-21T12:25:19;9.10;99.90
14511;DHT22;7341;50.930;4.038;2022-11-21T12:27:49;9.20;99.90
14511;DHT22;7341;50.930;4.038;2022-11-21T12:30:43;9.30;99.90
14511;DHT22;7341;50.930;4.038;2022-11-21T12:33:19;9.20;99.90
14511;DHT22;7341;50.930;4.038;2022-11-21T12:36:03;9.20;99.90
14511;DHT22;7341;50.930;4.038;2022-11-21T12:38:45;9.30;99.90
14511;DHT22;7341;50.930;4.038;2022-11-21T12:41:22;9.30;99.90
14511;DHT22;7341;50.930;4.038;2022-11-21T12:44:20;9.30;99.90
14511;DHT22;7341;50.930;4.038;2022-11-21T12:47:03;9.30;99.90
14511;DHT22;7341;50.930;4.038;2022-11-21T12:49:43;9.40;99.90
14511;DHT22;7341;50.930;4.038;2022-11-21T12:52:36;9.50;99.90
14511;DHT22;7341;50.930;4.038;2022-11-21T12:55:34;9.50;99.90
14511;DHT22;7341;50.930;4.038;2022-11-21T12:58:10;9.30;99.90
14511;DHT22;7341;50.930;4.038;2022-11-21T13:00:50;9.40;99.90
14511;DHT22;7341;50.930;4.038;2022-11-21T13:03:34;9.60;99.90
14511;DHT22;7341;50.930;4.038;2022-11-21T13:06:05;9.60;99.90
14511;DHT22;7341;50.930;4.038;2022-11-21T13:08:38;9.70;99.90
14511;DHT22;7341;50.930;4.038;2022-11-21T13:11:11;9.70;99.90
14511;DHT22;7341;50.930;4.038;2022-11-21T13:14:01;9.60;99.90
14511;DHT22;7341;50.930;4.038;2022-11-21T13:16:31;9.70;99.90
14511;DHT22;7341;50.930;4.038;2022-11-21T13:19:13;9.80;99.90
14511;DHT22;7341;50.930;4.038;2022-11-21T13:21:47;9.60;99.90
14511;DHT22;7341;50.930;4.038;2022-11-21T13:27:30;9.60;99.90
14511;DHT22;7341;50.930;4.038;2022-11-21T13:30:19;9.70;99.90
14511;DHT22;7341;50.930;4.038;2022-11-21T13:32:50;9.60;99.90
14511;DHT22;7341;50.930;4.038;2022-11-21T13:35:54;9.60;99.90
14511;DHT22;7341;50.930;4.038;2022-11-21T13:38:26;9.70;99.90
14511;DHT22;7341;50.930;4.038;2022-11-21T13:40:53;9.70;99.90
14511;DHT22;7341;50.930;4.038;2022-11-21T13:43:34;9.80;99.90
14511;DHT22;7341;50.930;4.038;2022-11-21T13:46:02;9.70;99.90
14511;DHT22;7341;50.930;4.038;2022-11-21T13:48:56;9.60;99.90
14511;DHT22;7341;50.930;4.038;2022-11-21T13:51:51;9.60;99.90
14511;DHT22;7341;50.930;4.038;2022-11-21T13:57:54;9.80;99.90
14511;DHT22;7341;50.930;4.038;2022-11-21T14:00:51;9.60;99.90
14511;DHT22;7341;50.930;4.038;2022-11-21T14:03:47;9.60;99.90
14511;DHT22;7341;50.930;4.038;2022-11-21T14:06:32;9.70;99.90
14511;DHT22;7341;50.930;4.038;2022-11-21T14:09:10;9.60;99.90
14511;DHT22;7341;50.930;4.038;2022-11-21T14:11:45;9.70;99.90
14511;DHT22;7341;50.930;4.038;2022-11-21T14:14:24;9.50;99.90
14511;DHT22;7341;50.930;4.038;2022-11-21T14:16:57;9.70;99.90
14511;DHT22;7341;50.930;4.038;2022-11-21T14:19:29;9.60;99.90
14511;DHT22;7341;50.930;4.038;2022-11-21T14:21:59;9.60;99.90
14511;DHT22;7341;50.930;4.038;2022-11-21T14:24:32;9.60;99.90
14511;DHT22;7341;50.930;4.038;2022-11-21T14:27:15;9.60;99.90
14511;DHT22;7341;50.930;4.038;2022-11-21T14:29:48;9.60;99.90
14511;DHT22;7341;50.930;4.038;2022-11-21T14:32:15;9.60;99.90
14511;DHT22;7341;50.930;4.038;2022-11-21T14:34:43;9.50;99.90
14511;DHT22;7341;50.930;4.038;2022-11-21T14:37:11;9.60;99.90
14511;DHT22;7341;50.930;4.038;2022-11-21T14:39:44;9.50;99.90
14511;DHT22;7341;50.930;4.038;2022-11-21T14:42:18;9.50;99.90
14511;DHT22;7341;50.930;4.038;2022-11-21T14:44:45;9.50;99.90
14511;DHT22;7341;50.930;4.038;2022-11-21T14:47:16;9.50;99.90
14511;DHT22;7341;50.930;4.038;2022-11-21T14:49:50;9.50;99.90
14511;DHT22;7341;50.930;4.038;2022-11-21T14:52:23;9.80;99.90
14511;DHT22;7341;50.930;4.038;2022-11-21T14:54:53;9.60;99.90
14511;DHT22;7341;50.930;4.038;2022-11-21T14:57:25;9.60;99.90
14511;DHT22;7341;50.930;4.038;2022-11-21T14:59:54;9.50;99.90
14511;DHT22;7341;50.930;4.038;2022-11-21T15:02:26;9.40;99.90
14511;DHT22;7341;50.930;4.038;2022-11-21T15:04:59;9.40;99.90
14511;DHT22;7341;50.930;4.038;2022-11-21T15:07:34;9.30;99.90
14511;DHT22;7341;50.930;4.038;2022-11-21T15:10:02;9.30;99.90
14511;DHT22;7341;50.930;4.038;2022-11-21T15:12:34;9.30;99.90
14511;DHT22;7341;50.930;4.038;2022-11-21T15:15:22;9.20;99.90
14511;DHT22;7341;50.930;4.038;2022-11-21T15:17:55;9.40;99.90
14511;DHT22;7341;50.930;4.038;2022-11-21T15:20:24;9.50;99.90
14511;DHT22;7341;50.930;4.038;2022-11-21T15:22:54;9.50;99.90
14511;DHT22;7341;50.930;4.038;2022-11-21T15:25:22;9.50;99.90
14511;DHT22;7341;50.930;4.038;2022-11-21T15:28:13;9.40;99.90
14511;DHT22;7341;50.930;4.038;2022-11-21T15:30:43;9.50;99.90
14511;DHT22;7341;50.930;4.038;2022-11-21T15:33:13;9.50;99.90
14511;DHT22;7341;50.930;4.038;2022-11-21T15:35:50;9.60;99.90
14511;DHT22;7341;50.930;4.038;2022-11-21T15:38:26;9.50;99.90
14511;DHT22;7341;50.930;4.038;2022-11-21T15:41:02;9.50;99.90
14511;DHT22;7341;50.930;4.038;2022-11-21T15:43:33;9.50;99.90
14511;DHT22;7341;50.930;4.038;2022-11-21T15:46:02;9.50;99.90
14511;DHT22;7341;50.930;4.038;2022-11-21T15:48:31;9.40;99.90
14511;DHT22;7341;50.930;4.038;2022-11-21T15:50:58;9.30;99.90
14511;DHT22;7341;50.930;4.038;2022-11-21T15:53:25;9.30;99.90
14511;DHT22;7341;50.930;4.038;2022-11-21T15:55:52;9.40;99.90
14511;DHT22;7341;50.930;4.038;2022-11-21T15:58:19;9.30;99.90
14511;DHT22;7341;50.930;4.038;2022-11-21T16:00:47;9.20;99.90
14511;DHT22;7341;50.930;4.038;2022-11-21T16:03:20;9.20;99.90
14511;DHT22;7341;50.930;4.038;2022-11-21T16:05:49;9.20;99.90
14511;DHT22;7341;50.930;4.038;2022-11-21T16:08:16;9.10;99.90
14511;DHT22;7341;50.930;4.038;2022-11-21T16:10:42;9.00;99.90
14511;DHT22;7341;50.930;4.038;2022-11-21T16:13:10;9.00;99.90
14511;DHT22;7341;50.930;4.038;2022-11-21T16:15:37;9.00;99.90
14511;DHT22;7341;50.930;4.038;2022-11-21T16:18:04;8.90;99.90
14511;DHT22;7341;50.930;4.038;2022-11-21T16:20:31;8.80;99.90
14511;DHT22;7341;50.930;4.038;2022-11-21T16:22:59;8.90;99.90
14511;DHT22;7341;50.930;4.038;2022-11-21T16:25:25;8.70;99.90
14511;DHT22;7341;50.930;4.038;2022-11-21T16:27:52;8.70;99.90
14511;DHT22;7341;50.930;4.038;2022-11-21T16:30:20;8.70;99.90
14511;DHT22;7341;50.930;4.038;2022-11-21T16:32:48;8.60;99.90
14511;DHT22;7341;50.930;4.038;2022-11-21T16:35:16;8.60;99.90
14511;DHT22;7341;50.930;4.038;2022-11-21T16:37:42;8.50;99.90